EGHI METAR and TAF | Updated Today

EGHI METAR

Southampton Airport

Observation time: 1:37 hr. ago

EGHI 291920Z 00000KT CAVOK 08/06 Q1009

Need help? Read our tutorial on how to read METARs or read the parsed version below.

Southampton Airport (EGHI) METAR

  • Weather conditions on Thu, 29 Sep 2022 19:20:00 +0000 (1:37 hr. ago):
  • Present conditions: Dry
  • Clouds: Clear skies
  • Visibility: Greater than 10 km
  • Wind: Calm
  • Temperature: 8 celsius
  • Dew point: 6 celsius
  • Pressure: 1009 millibars
  • Remarks: None


Useful to know...

EGHI TAF

Southampton Airport

TAF EGHI 291701Z 2918/2922 01004KT 9999 SCT035
Observation time: 3:56 hr. ago
Need help? Read our tutorial on how to read TAFs or read the parsed version below.

Parsed version of TAF for Southampton Airport (EGHI)

  • From 29 September at 18:00 UTC, to day 29 of the month at 22:00 UTC
  • Clouds: Scattered at 1067 meters
  • Visibility: Greater than 10 km
  • Wind: 10 degrees at 4